Terminal Aerodrome Forecast
Issued by NWS

Home | Current Version | Previous Version | Text Only | Print | Product List | Glossary Off
Versions: 1 2 3 4 5 6 7 8 9 10 11 12 13 14 15 16 17 18 19

000
FTUS43 KMPX 280500
TAFRWF
TAF
KRWF 280520Z 2806/2906 13005KT P6SM FEW050 BKN250
     FM281000 12005KT P6SM SCT030 OVC120
     FM281400 13006KT 6SM -SHRA BKN025 OVC040
     FM281600 13008KT 6SM -SHRA OVC010
     FM290200 13005KT 5SM BR VCSH OVC007=

USA.gov is the U.S. government's official web portal to all federal, state and local government web resources and services.